createdAt,value
2018-01-14T00:01:30.067Z,99.90
2018-01-14T00:03:56.302Z,99.90
2018-01-14T00:06:22.508Z,99.90
2018-01-14T00:08:48.686Z,99.90
2018-01-14T00:11:15.631Z,99.90
2018-01-14T00:13:42.547Z,99.90
2018-01-14T00:16:08.755Z,99.90
2018-01-14T00:18:34.937Z,99.90
2018-01-14T00:21:01.892Z,99.90
2018-01-14T00:23:28.814Z,99.90
2018-01-14T00:25:55.047Z,99.90
2018-01-14T00:28:21.232Z,99.90
2018-01-14T00:30:47.411Z,99.90
2018-01-14T00:33:14.352Z,99.90
2018-01-14T00:35:41.287Z,99.90
2018-01-14T00:38:07.495Z,99.90
2018-01-14T00:40:33.666Z,99.90
2018-01-14T00:43:00.634Z,99.90
2018-01-14T00:45:26.819Z,99.90
2018-01-14T00:47:53.026Z,99.90
2018-01-14T00:50:19.200Z,99.90
2018-01-14T00:52:46.151Z,99.90
2018-01-14T00:55:13.135Z,99.90
2018-01-14T00:57:39.343Z,99.90
2018-01-14T01:00:05.555Z,99.90
2018-01-14T01:02:31.736Z,99.90
2018-01-14T01:04:57.940Z,99.90
2018-01-14T01:07:24.124Z,99.90
2018-01-14T01:09:51.063Z,99.90
2018-01-14T01:12:17.244Z,99.90
2018-01-14T01:14:43.451Z,99.90
2018-01-14T01:17:09.694Z,99.90
2018-01-14T01:19:36.249Z,99.90
2018-01-14T01:22:02.431Z,99.90
2018-01-14T01:24:29.355Z,99.90
2018-01-14T01:26:55.563Z,99.90
2018-01-14T01:29:21.744Z,99.90
2018-01-14T01:31:47.948Z,99.90
2018-01-14T01:34:14.867Z,99.90
2018-01-14T01:36:41.071Z,99.90
2018-01-14T01:39:07.247Z,99.90
2018-01-14T01:41:33.447Z,99.90
2018-01-14T01:43:59.618Z,99.90
2018-01-14T01:46:26.563Z,99.90
2018-01-14T01:48:53.479Z,99.90
2018-01-14T01:51:19.682Z,99.90
2018-01-14T01:53:45.888Z,99.90
2018-01-14T01:56:12.099Z,99.90
2018-01-14T01:58:39.044Z,99.90
2018-01-14T02:01:06.324Z,99.90
2018-01-14T02:03:32.503Z,99.90
2018-01-14T02:05:58.682Z,99.90
2018-01-14T02:08:24.896Z,99.90
2018-01-14T02:10:51.114Z,99.90
2018-01-14T02:13:17.402Z,99.90
2018-01-14T02:15:44.355Z,99.90
2018-01-14T02:18:10.951Z,99.90
2018-01-14T02:20:37.138Z,99.90
2018-01-14T02:23:04.088Z,99.90
2018-01-14T02:25:31.015Z,99.90
2018-01-14T02:27:57.216Z,99.90
2018-01-14T02:30:23.439Z,99.90
2018-01-14T02:32:49.631Z,99.90
2018-01-14T02:35:16.627Z,99.90
2018-01-14T02:37:42.803Z,99.90
2018-01-14T02:40:09.743Z,99.90
2018-01-14T02:42:36.672Z,99.90
2018-01-14T02:45:02.879Z,99.90
2018-01-14T02:47:29.059Z,99.90
2018-01-14T02:49:55.263Z,99.90
2018-01-14T02:52:22.187Z,99.90
2018-01-14T02:54:48.395Z,99.90
2018-01-14T02:57:14.660Z,99.90
2018-01-14T02:59:40.864Z,99.90
2018-01-14T03:02:07.111Z,99.90
2018-01-14T03:04:33.347Z,99.90
2018-01-14T03:06:59.541Z,99.90
2018-01-14T03:09:25.748Z,99.90
2018-01-14T03:11:51.927Z,99.90
2018-01-14T03:14:18.106Z,99.90
2018-01-14T03:16:44.325Z,99.90
2018-01-14T03:19:10.499Z,99.90
2018-01-14T03:21:36.723Z,99.90
2018-01-14T03:24:02.899Z,99.90
2018-01-14T03:26:29.847Z,99.90
2018-01-14T03:28:56.771Z,99.90
2018-01-14T03:31:23.723Z,99.90
2018-01-14T03:33:50.667Z,99.90
2018-01-14T03:36:17.616Z,99.90
2018-01-14T03:38:44.535Z,99.90
2018-01-14T03:41:10.753Z,99.90
2018-01-14T03:43:36.939Z,99.90
2018-01-14T03:46:03.171Z,99.90
2018-01-14T03:48:29.359Z,99.90
2018-01-14T03:50:55.530Z,99.90
2018-01-14T03:53:21.771Z,99.90
2018-01-14T03:55:47.951Z,99.90
2018-01-14T03:58:14.183Z,99.90
2018-01-14T04:00:40.754Z,99.90
2018-01-14T04:03:06.954Z,99.90
2018-01-14T04:05:33.870Z,99.90
2018-01-14T04:08:00.067Z,99.90
2018-01-14T04:10:26.265Z,99.90
2018-01-14T04:12:53.208Z,99.90
2018-01-14T04:15:20.137Z,99.90
2018-01-14T04:17:46.319Z,99.90
2018-01-14T04:20:12.522Z,99.90
2018-01-14T04:22:38.703Z,99.90
2018-01-14T04:25:04.902Z,99.90
2018-01-14T04:27:31.089Z,99.90
2018-01-14T04:29:58.030Z,99.90
2018-01-14T04:32:24.254Z,99.90
2018-01-14T04:34:50.522Z,99.90
2018-01-14T04:37:16.703Z,99.90
2018-01-14T04:39:42.912Z,99.90
2018-01-14T04:42:09.091Z,99.90
2018-01-14T04:44:36.048Z,99.90
2018-01-14T04:47:02.235Z,99.90
2018-01-14T04:49:29.211Z,99.90
2018-01-14T04:51:56.128Z,99.90
2018-01-14T04:54:22.330Z,99.90
2018-01-14T04:56:48.504Z,99.90
2018-01-14T04:59:15.448Z,99.90
2018-01-14T05:01:42.399Z,99.90
2018-01-14T05:04:09.327Z,99.90
2018-01-14T05:06:35.527Z,99.90
2018-01-14T05:09:01.740Z,99.90
2018-01-14T05:11:27.970Z,99.90
2018-01-14T05:13:54.147Z,99.90
2018-01-14T05:16:20.330Z,99.90
2018-01-14T05:18:46.534Z,99.90
2018-01-14T05:21:12.719Z,99.90
2018-01-14T05:23:39.211Z,99.90
2018-01-14T05:26:05.387Z,99.90
2018-01-14T05:28:33.079Z,99.90
2018-01-14T05:31:00.007Z,99.90
2018-01-14T05:33:27.338Z,99.90
2018-01-14T05:35:53.517Z,99.90
2018-01-14T05:38:19.715Z,99.90
2018-01-14T05:40:45.915Z,99.90
2018-01-14T05:43:12.087Z,99.90
2018-01-14T05:45:39.034Z,99.90
2018-01-14T05:48:05.218Z,99.90
2018-01-14T05:50:31.419Z,99.90
2018-01-14T05:52:57.642Z,99.90
2018-01-14T05:55:23.845Z,99.90
2018-01-14T05:57:50.790Z,99.90
2018-01-14T06:00:17.740Z,99.90
2018-01-14T06:02:44.663Z,99.90
2018-01-14T06:05:10.936Z,99.90
2018-01-14T06:07:37.142Z,99.90
2018-01-14T06:10:04.082Z,99.90
2018-01-14T06:12:31.007Z,99.90
2018-01-14T06:14:57.237Z,99.90
2018-01-14T06:17:23.526Z,99.90
2018-01-14T06:19:49.703Z,99.90
2018-01-14T06:22:15.908Z,99.90
2018-01-14T06:24:42.083Z,99.90
2018-01-14T06:27:09.047Z,99.90
2018-01-14T06:29:35.227Z,99.90
2018-01-14T06:32:01.432Z,99.90
2018-01-14T06:34:27.622Z,99.90
2018-01-14T06:36:53.823Z,99.90
2018-01-14T06:39:19.998Z,99.90
2018-01-14T06:41:46.199Z,99.90
2018-01-14T06:44:13.135Z,99.90
2018-01-14T06:46:40.078Z,99.90
2018-01-14T06:49:07.000Z,99.90
2018-01-14T06:51:33.518Z,99.90
2018-01-14T06:53:59.707Z,99.90
2018-01-14T06:56:25.888Z,99.90
2018-01-14T06:58:52.118Z,99.90
2018-01-14T07:01:18.300Z,99.90
2018-01-14T07:03:44.503Z,99.90
2018-01-14T07:06:11.427Z,99.90
2018-01-14T07:08:37.636Z,99.90
2018-01-14T07:11:03.814Z,99.90
2018-01-14T07:13:30.028Z,99.90
2018-01-14T07:15:56.946Z,99.90
2018-01-14T07:18:23.122Z,99.90
2018-01-14T07:20:49.318Z,99.90
2018-01-14T07:23:15.506Z,99.90
2018-01-14T07:25:41.731Z,99.90
2018-01-14T07:28:07.916Z,99.90
2018-01-14T07:30:34.890Z,99.90
2018-01-14T07:33:01.063Z,99.90
2018-01-14T07:35:27.271Z,99.90
2018-01-14T07:37:53.447Z,99.90
2018-01-14T07:40:20.558Z,99.90
2018-01-14T07:42:46.734Z,99.90
2018-01-14T07:45:13.660Z,99.90
2018-01-14T07:47:39.860Z,99.90
2018-01-14T07:50:06.191Z,99.90
2018-01-14T07:52:32.369Z,99.90
2018-01-14T07:54:59.292Z,99.90
2018-01-14T07:57:25.600Z,99.90
2018-01-14T07:59:51.785Z,99.90
2018-01-14T08:02:17.986Z,99.90
2018-01-14T08:04:44.165Z,99.90
2018-01-14T08:07:10.363Z,99.90
2018-01-14T08:09:37.287Z,99.90
2018-01-14T08:12:03.499Z,99.90
2018-01-14T08:14:29.679Z,99.90
2018-01-14T08:16:55.859Z,99.90
2018-01-14T08:19:22.062Z,99.90
2018-01-14T08:21:55.231Z,99.90
2018-01-14T08:24:21.435Z,99.90
2018-01-14T08:26:48.382Z,99.90
2018-01-14T08:29:15.327Z,99.90
2018-01-14T08:31:42.559Z,99.90
2018-01-14T08:34:08.764Z,99.90
2018-01-14T08:36:34.938Z,99.90
2018-01-14T08:39:01.892Z,99.90
2018-01-14T08:41:28.071Z,99.90
2018-01-14T08:43:54.579Z,99.90
2018-01-14T08:46:20.755Z,99.90
2018-01-14T08:48:46.967Z,99.90
2018-01-14T08:51:13.159Z,99.90
2018-01-14T08:53:39.335Z,99.90
2018-01-14T08:56:05.547Z,99.90
2018-01-14T08:58:31.758Z,99.90
2018-01-14T09:00:57.959Z,99.90
2018-01-14T09:03:24.134Z,99.90
2018-01-14T09:05:50.358Z,99.90
2018-01-14T09:08:16.604Z,99.90
2018-01-14T09:10:43.158Z,99.90
2018-01-14T09:13:10.107Z,99.90
2018-01-14T09:15:37.028Z,99.90
2018-01-14T09:18:03.241Z,99.90
2018-01-14T09:20:29.416Z,99.90
2018-01-14T09:22:56.363Z,99.90
2018-01-14T09:25:23.287Z,99.90
2018-01-14T09:27:49.894Z,99.90
2018-01-14T09:30:16.111Z,99.90
2018-01-14T09:32:42.283Z,99.90
2018-01-14T09:35:08.501Z,99.90
2018-01-14T09:37:35.325Z,99.90
2018-01-14T09:40:01.559Z,99.90
2018-01-14T09:42:27.738Z,99.90
2018-01-14T09:44:54.682Z,99.90
2018-01-14T09:47:21.607Z,99.90
2018-01-14T09:49:47.816Z,99.90
2018-01-14T09:52:13.995Z,99.90
2018-01-14T09:54:40.226Z,99.90
2018-01-14T09:57:06.443Z,99.90
2018-01-14T09:59:32.663Z,99.90
2018-01-14T10:01:59.587Z,99.90
2018-01-14T10:04:25.799Z,99.90
2018-01-14T10:06:51.978Z,99.90
2018-01-14T10:09:18.159Z,99.90
2018-01-14T10:11:44.366Z,99.90
2018-01-14T10:14:10.551Z,99.90
2018-01-14T10:16:37.499Z,99.90
2018-01-14T10:19:04.419Z,99.90
2018-01-14T10:21:32.102Z,99.90
2018-01-14T10:23:59.029Z,99.90
2018-01-14T10:26:25.979Z,99.90
2018-01-14T10:28:52.899Z,99.90
2018-01-14T10:31:19.114Z,99.90
2018-01-14T10:33:45.299Z,99.90
2018-01-14T10:36:13.046Z,99.90
2018-01-14T10:38:40.022Z,99.90
2018-01-14T10:41:06.203Z,99.90
2018-01-14T10:43:32.407Z,99.90
2018-01-14T10:45:58.592Z,99.90
2018-01-14T10:48:25.568Z,99.90
2018-01-14T10:50:51.750Z,99.90
2018-01-14T10:53:18.673Z,99.90
2018-01-14T10:55:44.883Z,99.90
2018-01-14T10:58:11.099Z,99.90
2018-01-14T11:00:43.384Z,99.90
2018-01-14T11:03:09.563Z,99.90
2018-01-14T11:05:36.508Z,99.90
2018-01-14T11:08:03.427Z,99.90
2018-01-14T11:10:29.847Z,99.90
2018-01-14T11:12:56.031Z,99.90
2018-01-14T11:15:22.971Z,99.90
2018-01-14T11:17:49.933Z,99.90
2018-01-14T11:20:16.140Z,99.90
2018-01-14T11:22:43.067Z,95.90
2018-01-14T11:25:09.993Z,99.90
2018-01-14T11:27:36.197Z,99.90
2018-01-14T11:30:03.383Z,99.20
2018-01-14T11:32:38.088Z,95.20
2018-01-14T11:35:04.295Z,95.20
2018-01-14T11:37:30.468Z,99.90
2018-01-14T11:39:56.883Z,94.90
2018-01-14T11:42:23.063Z,99.60
2018-01-14T11:44:49.988Z,95.70
2018-01-14T11:47:16.942Z,92.80
2018-01-14T11:49:43.865Z,71.90
2018-01-14T11:52:10.071Z,68.30
2018-01-14T11:54:36.264Z,92.80
2018-01-14T11:57:02.470Z,95.70
2018-01-14T11:59:29.414Z,97.00
2018-01-14T12:01:55.662Z,97.30
2018-01-14T12:04:22.587Z,96.50
2018-01-14T12:06:48.789Z,96.60
2018-01-14T12:09:14.999Z,99.90
2018-01-14T12:11:41.211Z,99.80
2018-01-14T12:14:08.171Z,99.90
2018-01-14T12:16:37.746Z,99.90
2018-01-14T12:19:04.916Z,99.90
2018-01-14T12:21:31.500Z,99.90
2018-01-14T12:23:57.767Z,96.90
2018-01-14T12:26:24.691Z,99.90
2018-01-14T12:28:50.891Z,99.90
2018-01-14T12:31:17.076Z,99.90
2018-01-14T12:33:49.497Z,93.60
2018-01-14T12:36:16.003Z,95.80
2018-01-14T12:38:42.436Z,99.90
2018-01-14T12:41:08.647Z,99.90
2018-01-14T12:43:34.832Z,99.90
2018-01-14T12:46:01.036Z,99.90
2018-01-14T12:48:27.220Z,99.90
2018-01-14T12:50:54.163Z,99.90
2018-01-14T12:53:21.093Z,99.90
2018-01-14T12:55:48.042Z,99.90
2018-01-14T12:58:14.994Z,99.90
2018-01-14T13:00:41.935Z,99.90
2018-01-14T13:03:08.855Z,99.90
2018-01-14T13:05:35.060Z,99.90
2018-01-14T13:08:01.312Z,99.90
2018-01-14T13:10:27.520Z,99.90
2018-01-14T13:12:53.707Z,99.90
2018-01-14T13:15:20.757Z,99.90
2018-01-14T13:17:47.715Z,99.90
2018-01-14T13:20:13.918Z,99.90
2018-01-14T13:22:41.263Z,99.90
2018-01-14T13:25:07.485Z,99.90
2018-01-14T13:27:33.733Z,99.90
2018-01-14T13:30:00.693Z,99.90
2018-01-14T13:32:27.648Z,99.90
2018-01-14T13:34:54.098Z,99.90
2018-01-14T13:37:20.278Z,99.90
2018-01-14T13:39:46.487Z,99.90
2018-01-14T13:42:12.701Z,99.90
2018-01-14T13:44:38.907Z,99.90
2018-01-14T13:47:05.088Z,99.90
2018-01-14T13:49:32.044Z,99.90
2018-01-14T13:51:58.966Z,99.90
2018-01-14T13:54:25.410Z,99.90
2018-01-14T13:56:51.595Z,99.90
2018-01-14T13:59:17.859Z,99.90
2018-01-14T14:01:44.135Z,99.90
2018-01-14T14:04:10.381Z,99.90
2018-01-14T14:06:36.725Z,99.90
2018-01-14T14:09:03.000Z,99.90
2018-01-14T14:11:29.947Z,99.90
2018-01-14T14:13:56.909Z,99.90
2018-01-14T14:16:23.859Z,99.90
2018-01-14T14:18:50.042Z,99.90
2018-01-14T14:21:16.251Z,99.90
2018-01-14T14:23:42.443Z,99.90
2018-01-14T14:26:08.650Z,99.90
2018-01-14T14:28:35.576Z,99.90
2018-01-14T14:31:01.786Z,99.90
2018-01-14T14:33:28.028Z,99.90
2018-01-14T14:35:54.260Z,99.90
2018-01-14T14:38:20.489Z,99.90
2018-01-14T14:40:46.675Z,99.90
2018-01-14T14:43:13.127Z,99.90
2018-01-14T14:45:39.345Z,99.90
2018-01-14T14:48:05.548Z,99.90
2018-01-14T14:50:32.735Z,99.90
2018-01-14T14:52:59.392Z,99.90
2018-01-14T14:55:27.592Z,99.90
2018-01-14T14:57:54.037Z,99.90
2018-01-14T15:00:20.987Z,99.90
2018-01-14T15:02:47.931Z,99.90
2018-01-14T15:05:21.919Z,99.90
2018-01-14T15:07:48.181Z,99.90
2018-01-14T15:10:15.099Z,99.90
2018-01-14T15:12:41.319Z,99.90
2018-01-14T15:15:07.564Z,99.90
2018-01-14T15:17:34.537Z,99.90
2018-01-14T15:20:00.743Z,99.90
2018-01-14T15:22:27.663Z,99.90
2018-01-14T15:24:53.866Z,99.90
2018-01-14T15:27:20.049Z,99.90
2018-01-14T15:29:47.000Z,99.90
2018-01-14T15:32:13.927Z,99.90
2018-01-14T15:34:40.891Z,99.90
2018-01-14T15:37:08.071Z,99.90
2018-01-14T15:39:34.274Z,99.90
2018-01-14T15:42:01.200Z,99.90
2018-01-14T15:44:27.402Z,99.90
2018-01-14T15:46:53.680Z,99.90
2018-01-14T15:49:19.856Z,99.90
2018-01-14T15:51:46.126Z,99.90
2018-01-14T15:54:13.062Z,99.90
2018-01-14T15:56:40.637Z,99.90
2018-01-14T15:59:07.264Z,99.90
2018-01-14T16:01:34.314Z,99.90
2018-01-14T16:04:01.227Z,99.90
2018-01-14T16:06:27.478Z,99.90
2018-01-14T16:08:53.680Z,99.90
2018-01-14T16:11:20.014Z,99.90
2018-01-14T16:13:46.191Z,99.90
2018-01-14T16:16:13.157Z,99.90
2018-01-14T16:18:39.363Z,99.90
2018-01-14T16:21:06.288Z,99.90
2018-01-14T16:23:32.491Z,99.90
2018-01-14T16:25:58.671Z,99.90
2018-01-14T16:28:25.674Z,99.90
2018-01-14T16:30:51.859Z,99.90
2018-01-14T16:33:18.039Z,99.90
2018-01-14T16:35:44.248Z,99.90
2018-01-14T16:38:10.429Z,99.90
2018-01-14T16:40:37.767Z,99.90
2018-01-14T16:43:04.733Z,99.90
2018-01-14T16:45:30.947Z,99.90
2018-01-14T16:47:57.931Z,99.90
2018-01-14T16:50:24.186Z,99.90
2018-01-14T16:52:50.364Z,99.90
2018-01-14T16:55:17.306Z,99.90
2018-01-14T16:57:44.227Z,99.90
2018-01-14T17:00:10.517Z,99.90
2018-01-14T17:02:37.004Z,99.90
2018-01-14T17:05:04.083Z,99.90
2018-01-14T17:07:30.588Z,99.90
2018-01-14T17:09:57.841Z,99.90
2018-01-14T17:12:24.768Z,99.90
2018-01-14T17:14:51.325Z,99.90
2018-01-14T17:17:18.680Z,99.90
2018-01-14T17:19:45.635Z,99.90
2018-01-14T17:22:12.555Z,99.90
2018-01-14T17:24:38.731Z,99.90
2018-01-14T17:27:05.385Z,99.90
2018-01-14T17:29:31.704Z,99.90
2018-01-14T17:31:58.249Z,99.90
2018-01-14T17:34:24.456Z,99.90
2018-01-14T17:36:50.659Z,99.90
2018-01-14T17:39:17.654Z,99.90
2018-01-14T17:41:43.882Z,99.90
2018-01-14T17:44:10.063Z,99.90
2018-01-14T17:46:37.058Z,99.90
2018-01-14T17:49:03.654Z,99.90
2018-01-14T17:51:30.640Z,99.90
2018-01-14T17:53:57.236Z,99.90
2018-01-14T17:56:24.489Z,99.90
2018-01-14T17:58:51.431Z,99.90
2018-01-14T18:01:17.739Z,99.90
2018-01-14T18:03:43.967Z,99.90
2018-01-14T18:06:10.151Z,99.90
2018-01-14T18:08:36.751Z,99.90
2018-01-14T18:11:02.934Z,99.90
2018-01-14T18:13:29.157Z,99.90
2018-01-14T18:15:55.756Z,99.90
2018-01-14T18:18:22.674Z,99.90
2018-01-14T18:20:48.906Z,99.90
2018-01-14T18:23:15.126Z,99.90
2018-01-14T18:25:41.364Z,99.90
2018-01-14T18:28:07.785Z,99.90
2018-01-14T18:30:34.067Z,99.90
2018-01-14T18:33:01.305Z,99.90
2018-01-14T18:35:27.946Z,99.90
2018-01-14T18:37:55.197Z,99.90
2018-01-14T18:40:22.450Z,99.90
2018-01-14T18:42:49.488Z,99.90
2018-01-14T18:45:15.651Z,99.90
2018-01-14T18:47:41.906Z,99.90
2018-01-14T18:50:08.087Z,99.90
2018-01-14T18:52:35.031Z,99.90
2018-01-14T18:55:01.997Z,99.90
2018-01-14T18:57:28.216Z,99.90
2018-01-14T18:59:55.214Z,99.90
2018-01-14T19:02:21.451Z,99.90
2018-01-14T19:04:47.655Z,99.90
2018-01-14T19:07:14.096Z,99.90
2018-01-14T19:09:40.315Z,99.90
2018-01-14T19:12:06.577Z,99.90
2018-01-14T19:14:32.909Z,99.90
2018-01-14T19:16:59.134Z,99.90
2018-01-14T19:19:25.396Z,99.90
2018-01-14T19:21:52.357Z,99.90
2018-01-14T19:24:19.350Z,99.90
2018-01-14T19:26:45.574Z,99.90
2018-01-14T19:29:11.817Z,99.90
2018-01-14T19:31:38.037Z,99.90
2018-01-14T19:34:04.298Z,99.90
2018-01-14T19:36:30.538Z,99.90
2018-01-14T19:38:57.519Z,99.90
2018-01-14T19:41:23.790Z,99.90
2018-01-14T19:43:50.021Z,99.90
2018-01-14T19:46:16.243Z,99.90
2018-01-14T19:48:42.471Z,99.90
2018-01-14T19:51:08.777Z,99.90
2018-01-14T19:53:35.323Z,99.90
2018-01-14T19:56:01.593Z,99.90
2018-01-14T19:58:28.566Z,99.90
2018-01-14T20:00:54.838Z,99.90
2018-01-14T20:03:21.061Z,99.90
2018-01-14T20:05:47.267Z,99.90
2018-01-14T20:08:13.485Z,99.90
2018-01-14T20:10:39.898Z,99.90
2018-01-14T20:13:07.633Z,99.90
2018-01-14T20:15:33.866Z,99.90
2018-01-14T20:18:00.118Z,99.90
2018-01-14T20:20:27.099Z,99.90
2018-01-14T20:22:53.350Z,99.90
2018-01-14T20:25:19.575Z,99.90
2018-01-14T20:27:45.833Z,99.90
2018-01-14T20:30:12.053Z,99.90
2018-01-14T20:32:38.307Z,99.90
2018-01-14T20:35:05.286Z,99.90
2018-01-14T20:37:31.849Z,99.90
2018-01-14T20:39:58.074Z,99.90
2018-01-14T20:42:25.191Z,99.90
2018-01-14T20:44:54.298Z,99.90
2018-01-14T20:47:20.517Z,99.90
2018-01-14T20:49:46.722Z,99.90
2018-01-14T20:52:12.954Z,99.90
2018-01-14T20:54:39.947Z,99.90
2018-01-14T20:57:06.175Z,99.90
2018-01-14T20:59:32.470Z,99.90
2018-01-14T21:01:59.438Z,99.90
2018-01-14T21:04:25.862Z,99.90
2018-01-14T21:06:52.085Z,99.90
2018-01-14T21:09:19.007Z,99.90
2018-01-14T21:11:45.209Z,99.90
2018-01-14T21:14:11.386Z,99.90
2018-01-14T21:16:38.467Z,99.90
2018-01-14T21:19:04.694Z,99.90
2018-01-14T21:21:30.974Z,99.90
2018-01-14T21:23:57.222Z,99.90
2018-01-14T21:26:24.248Z,99.90
2018-01-14T21:28:50.504Z,99.90
2018-01-14T21:31:16.772Z,99.90
2018-01-14T21:33:42.999Z,99.90
2018-01-14T21:36:09.494Z,99.90
2018-01-14T21:38:36.459Z,99.90
2018-01-14T21:41:02.705Z,99.90
2018-01-14T21:43:28.949Z,99.90
2018-01-14T21:45:55.179Z,99.90
2018-01-14T21:48:21.406Z,99.90
2018-01-14T21:50:47.583Z,99.90
2018-01-14T21:53:14.578Z,99.90
2018-01-14T21:55:40.806Z,99.90
2018-01-14T21:58:07.058Z,99.90
2018-01-14T22:00:33.282Z,99.90
2018-01-14T22:02:59.533Z,99.90
2018-01-14T22:05:25.759Z,99.90
2018-01-14T22:07:51.999Z,99.90
2018-01-14T22:10:18.921Z,99.90
2018-01-14T22:12:45.103Z,99.90
2018-01-14T22:15:11.352Z,99.90
2018-01-14T22:17:37.583Z,99.90
2018-01-14T22:20:03.839Z,99.90
2018-01-14T22:22:30.085Z,99.90
2018-01-14T22:24:56.329Z,99.90
2018-01-14T22:27:23.289Z,99.90
2018-01-14T22:29:49.487Z,99.90
2018-01-14T22:32:15.718Z,99.90
2018-01-14T22:34:41.922Z,99.90
2018-01-14T22:37:08.107Z,99.90
2018-01-14T22:39:34.353Z,99.90
2018-01-14T22:42:00.539Z,99.90
2018-01-14T22:44:27.483Z,99.90
2018-01-14T22:46:54.426Z,99.90
2018-01-14T22:49:21.347Z,99.90
2018-01-14T22:51:47.547Z,99.90
2018-01-14T22:54:13.769Z,99.90
2018-01-14T22:56:39.967Z,99.90
2018-01-14T22:59:06.950Z,99.90
2018-01-14T23:01:33.179Z,99.90
2018-01-14T23:03:59.355Z,99.90
2018-01-14T23:06:25.623Z,99.90
2018-01-14T23:08:51.822Z,99.90
2018-01-14T23:11:18.978Z,99.90
2018-01-14T23:13:45.895Z,99.90
2018-01-14T23:16:12.071Z,99.90
2018-01-14T23:18:38.270Z,99.90
2018-01-14T23:21:05.203Z,99.90
2018-01-14T23:23:31.427Z,99.90
2018-01-14T23:25:57.611Z,99.90
2018-01-14T23:28:23.820Z,99.90
2018-01-14T23:30:50.755Z,99.90
2018-01-14T23:33:17.710Z,99.90
2018-01-14T23:35:44.630Z,99.90
2018-01-14T23:38:10.836Z,99.90
2018-01-14T23:40:37.029Z,99.90
2018-01-14T23:43:03.231Z,99.90
2018-01-14T23:45:30.155Z,99.90
2018-01-14T23:47:56.567Z,99.90
2018-01-14T23:50:22.766Z,99.90
2018-01-14T23:52:48.943Z,99.90
2018-01-14T23:55:15.147Z,99.90
2018-01-14T23:57:41.330Z,99.90
